sensor_id;sensor_type;location;lat;lon;timestamp;pressure;altitude;pressure_sealevel;temperature;humidity
41688;BME280;27371;42.686;23.362;2022-08-11T00:03:06;94986.88;;;20.01;66.42
41688;BME280;27371;42.686;23.362;2022-08-11T00:05:42;94982.63;;;20.00;66.35
41688;BME280;27371;42.686;23.362;2022-08-11T00:08:08;94985.03;;;20.04;66.47
41688;BME280;27371;42.686;23.362;2022-08-11T00:10:35;94978.19;;;19.97;66.57
41688;BME280;27371;42.686;23.362;2022-08-11T00:13:04;94992.06;;;20.05;66.38
41688;BME280;27371;42.686;23.362;2022-08-11T00:15:42;94987.63;;;20.02;66.58
41688;BME280;27371;42.686;23.362;2022-08-11T00:18:09;94996.81;;;19.97;66.43
41688;BME280;27371;42.686;23.362;2022-08-11T00:20:39;94980.56;;;19.93;66.48
41688;BME280;27371;42.686;23.362;2022-08-11T00:23:13;94990.31;;;19.94;66.84
41688;BME280;27371;42.686;23.362;2022-08-11T00:25:43;94989.38;;;19.92;67.01
41688;BME280;27371;42.686;23.362;2022-08-11T00:28:42;94992.69;;;19.90;67.09
41688;BME280;27371;42.686;23.362;2022-08-11T00:31:23;94984.75;;;19.87;67.30
41688;BME280;27371;42.686;23.362;2022-08-11T00:33:51;94977.88;;;19.80;67.25
41688;BME280;27371;42.686;23.362;2022-08-11T00:36:18;94984.16;;;19.80;67.81
41688;BME280;27371;42.686;23.362;2022-08-11T00:38:48;94971.75;;;19.74;67.53
41688;BME280;27371;42.686;23.362;2022-08-11T00:44:59;94982.03;;;19.73;67.91
41688;BME280;27371;42.686;23.362;2022-08-11T00:53:06;94983.88;;;19.71;67.99
41688;BME280;27371;42.686;23.362;2022-08-11T01:01:46;94986.97;;;19.67;68.42
41688;BME280;27371;42.686;23.362;2022-08-11T01:15:33;94983.38;;;19.59;68.46
41688;BME280;27371;42.686;23.362;2022-08-11T01:50:11;94953.66;;;19.31;69.56
41688;BME280;27371;42.686;23.362;2022-08-11T01:53:09;94967.88;;;19.35;69.55
41688;BME280;27371;42.686;23.362;2022-08-11T02:04:14;94966.00;;;19.30;70.06
41688;BME280;27371;42.686;23.362;2022-08-11T02:06:58;94976.63;;;19.26;70.14
41688;BME280;27371;42.686;23.362;2022-08-11T02:20:55;94968.47;;;19.20;70.53
41688;BME280;27371;42.686;23.362;2022-08-11T02:23:58;94968.25;;;19.18;70.50
41688;BME280;27371;42.686;23.362;2022-08-11T02:26:38;94967.31;;;19.16;70.55
41688;BME280;27371;42.686;23.362;2022-08-11T02:29:30;94967.31;;;19.16;70.59
41688;BME280;27371;42.686;23.362;2022-08-11T02:32:08;94961.59;;;19.13;71.06
41688;BME280;27371;42.686;23.362;2022-08-11T02:35:27;94959.50;;;19.06;70.86
41688;BME280;27371;42.686;23.362;2022-08-11T02:40:53;94970.34;;;18.91;71.34
41688;BME280;27371;42.686;23.362;2022-08-11T02:43:44;94962.53;;;18.82;71.46
41688;BME280;27371;42.686;23.362;2022-08-11T02:46:28;94955.66;;;18.75;72.04
41688;BME280;27371;42.686;23.362;2022-08-11T02:52:06;94963.94;;;18.75;71.96
41688;BME280;27371;42.686;23.362;2022-08-11T02:58:08;94964.22;;;18.72;72.13
41688;BME280;27371;42.686;23.362;2022-08-11T03:01:07;94972.31;;;18.69;72.24
41688;BME280;27371;42.686;23.362;2022-08-11T03:03:37;94960.44;;;18.61;72.21
41688;BME280;27371;42.686;23.362;2022-08-11T03:09:09;94976.44;;;18.63;72.12
41688;BME280;27371;42.686;23.362;2022-08-11T03:14:51;94949.81;;;18.52;72.21
41688;BME280;27371;42.686;23.362;2022-08-11T03:20:52;94973.16;;;18.64;71.93
41688;BME280;27371;42.686;23.362;2022-08-11T03:23:40;94977.50;;;18.60;72.17
41688;BME280;27371;42.686;23.362;2022-08-11T03:26:36;94975.50;;;18.60;72.20
41688;BME280;27371;42.686;23.362;2022-08-11T03:29:07;94965.75;;;18.59;72.23
41688;BME280;27371;42.686;23.362;2022-08-11T03:31:48;94971.25;;;18.59;72.03
41688;BME280;27371;42.686;23.362;2022-08-11T03:34:25;94965.22;;;18.61;72.10
41688;BME280;27371;42.686;23.362;2022-08-11T03:39:44;94976.16;;;18.53;72.34
41688;BME280;27371;42.686;23.362;2022-08-11T03:45:04;94976.47;;;18.50;72.51
41688;BME280;27371;42.686;23.362;2022-08-11T03:48:10;94974.25;;;18.48;72.73
41688;BME280;27371;42.686;23.362;2022-08-11T03:51:01;94978.28;;;18.47;72.59
41688;BME280;27371;42.686;23.362;2022-08-11T04:20:41;94989.31;;;20.70;65.22
41688;BME280;27371;42.686;23.362;2022-08-11T04:31:33;95000.63;;;22.77;57.50
41688;BME280;27371;42.686;23.362;2022-08-11T04:34:40;94999.56;;;23.13;55.94
41688;BME280;27371;42.686;23.362;2022-08-11T04:52:18;95010.88;;;25.45;48.53
41688;BME280;27371;42.686;23.362;2022-08-11T04:58:18;95013.69;;;25.82;47.16
41688;BME280;27371;42.686;23.362;2022-08-11T05:07:43;95011.88;;;26.04;46.17
41688;BME280;27371;42.686;23.362;2022-08-11T05:13:02;95012.22;;;25.81;46.39
41688;BME280;27371;42.686;23.362;2022-08-11T05:15:53;95009.34;;;25.34;47.61
41688;BME280;27371;42.686;23.362;2022-08-11T05:18:54;95008.13;;;25.82;46.42
41688;BME280;27371;42.686;23.362;2022-08-11T05:21:42;95010.97;;;25.64;47.06
41688;BME280;27371;42.686;23.362;2022-08-11T05:27:20;95010.44;;;25.21;48.09
41688;BME280;27371;42.686;23.362;2022-08-11T05:30:09;95014.63;;;25.13;48.27
41688;BME280;27371;42.686;23.362;2022-08-11T05:33:20;95011.59;;;24.83;49.04
41688;BME280;27371;42.686;23.362;2022-08-11T05:36:32;95009.00;;;24.68;49.53
41688;BME280;27371;42.686;23.362;2022-08-11T05:39:06;95008.59;;;24.54;50.12
41688;BME280;27371;42.686;23.362;2022-08-11T05:41:56;95008.19;;;24.15;51.21
41688;BME280;27371;42.686;23.362;2022-08-11T05:44:44;95013.34;;;23.94;52.31
41688;BME280;27371;42.686;23.362;2022-08-11T05:47:30;95012.50;;;23.84;52.72
41688;BME280;27371;42.686;23.362;2022-08-11T05:50:17;95011.88;;;24.18;51.89
41688;BME280;27371;42.686;23.362;2022-08-11T05:53:02;95010.34;;;24.42;51.35
41688;BME280;27371;42.686;23.362;2022-08-11T05:55:48;95001.41;;;24.26;51.64
41688;BME280;27371;42.686;23.362;2022-08-11T05:58:35;94998.78;;;24.28;51.55
41688;BME280;27371;42.686;23.362;2022-08-11T06:01:02;95001.97;;;24.42;51.77
41688;BME280;27371;42.686;23.362;2022-08-11T06:03:29;95006.59;;;24.64;50.62
41688;BME280;27371;42.686;23.362;2022-08-11T06:05:57;95003.09;;;24.64;50.57
41688;BME280;27371;42.686;23.362;2022-08-11T06:08:27;95006.34;;;24.53;50.88
41688;BME280;27371;42.686;23.362;2022-08-11T06:10:59;95007.84;;;24.54;50.97
41688;BME280;27371;42.686;23.362;2022-08-11T06:13:26;95011.44;;;24.64;50.73
41688;BME280;27371;42.686;23.362;2022-08-11T06:15:56;94990.81;;;24.50;50.99
41688;BME280;27371;42.686;23.362;2022-08-11T06:18:22;95001.69;;;24.55;51.14
41688;BME280;27371;42.686;23.362;2022-08-11T06:20:53;95004.66;;;24.75;50.98
41688;BME280;27371;42.686;23.362;2022-08-11T06:23:21;95002.75;;;24.95;50.08
41688;BME280;27371;42.686;23.362;2022-08-11T06:25:53;95001.53;;;24.88;50.36
41688;BME280;27371;42.686;23.362;2022-08-11T06:28:19;94993.69;;;24.77;50.59
41688;BME280;27371;42.686;23.362;2022-08-11T06:30:55;95003.84;;;24.82;50.45
41688;BME280;27371;42.686;23.362;2022-08-11T06:33:30;94993.25;;;24.98;49.99
41688;BME280;27371;42.686;23.362;2022-08-11T06:36:15;94987.34;;;24.94;50.01
41688;BME280;27371;42.686;23.362;2022-08-11T06:44:43;95002.56;;;25.54;48.38
41688;BME280;27371;42.686;23.362;2022-08-11T06:47:16;94991.13;;;25.60;48.05
41688;BME280;27371;42.686;23.362;2022-08-11T06:49:46;95000.06;;;25.86;47.66
41688;BME280;27371;42.686;23.362;2022-08-11T06:52:35;95005.25;;;25.99;46.34
41688;BME280;27371;42.686;23.362;2022-08-11T06:55:07;94999.59;;;25.80;46.35
41688;BME280;27371;42.686;23.362;2022-08-11T06:57:36;94988.91;;;25.86;45.13
41688;BME280;27371;42.686;23.362;2022-08-11T07:00:20;94997.44;;;25.88;45.15
41688;BME280;27371;42.686;23.362;2022-08-11T07:03:12;94999.38;;;25.95;46.14
41688;BME280;27371;42.686;23.362;2022-08-11T07:05:48;94984.25;;;25.98;45.79
41688;BME280;27371;42.686;23.362;2022-08-11T07:14:23;95008.81;;;26.75;43.73
41688;BME280;27371;42.686;23.362;2022-08-11T07:17:30;95001.88;;;26.76;42.41
41688;BME280;27371;42.686;23.362;2022-08-11T07:20:00;95017.03;;;26.63;42.25
41688;BME280;27371;42.686;23.362;2022-08-11T07:22:56;95010.22;;;26.37;43.07
41688;BME280;27371;42.686;23.362;2022-08-11T07:25:43;94997.88;;;26.50;42.48
41688;BME280;27371;42.686;23.362;2022-08-11T07:28:32;95010.06;;;26.45;42.96
41688;BME280;27371;42.686;23.362;2022-08-11T07:31:38;95015.28;;;26.68;42.75
41688;BME280;27371;42.686;23.362;2022-08-11T07:34:20;95007.50;;;26.86;40.74
41688;BME280;27371;42.686;23.362;2022-08-11T07:36:53;95002.94;;;26.81;41.76
41688;BME280;27371;42.686;23.362;2022-08-11T07:39:21;95000.28;;;26.73;42.14
41688;BME280;27371;42.686;23.362;2022-08-11T07:41:50;95005.41;;;26.77;42.60
41688;BME280;27371;42.686;23.362;2022-08-11T07:44:16;95007.06;;;26.99;42.50
41688;BME280;27371;42.686;23.362;2022-08-11T07:46:46;94992.03;;;27.14;41.79
41688;BME280;27371;42.686;23.362;2022-08-11T07:49:34;94994.75;;;27.63;39.91
41688;BME280;27371;42.686;23.362;2022-08-11T07:52:19;94993.97;;;27.62;39.24
41688;BME280;27371;42.686;23.362;2022-08-11T07:54:54;95007.69;;;27.58;39.89
41688;BME280;27371;42.686;23.362;2022-08-11T07:57:20;94996.44;;;27.77;39.09
41688;BME280;27371;42.686;23.362;2022-08-11T08:00:05;94997.00;;;27.95;38.72
41688;BME280;27371;42.686;23.362;2022-08-11T08:02:49;94988.16;;;27.89;38.47
41688;BME280;27371;42.686;23.362;2022-08-11T08:05:34;94998.81;;;27.81;39.20
41688;BME280;27371;42.686;23.362;2022-08-11T08:08:20;94997.50;;;27.82;38.85
41688;BME280;27371;42.686;23.362;2022-08-11T08:11:05;94998.06;;;27.90;39.21
41688;BME280;27371;42.686;23.362;2022-08-11T08:13:52;94994.22;;;27.86;38.31
41688;BME280;27371;42.686;23.362;2022-08-11T08:16:37;95002.78;;;27.88;38.19
41688;BME280;27371;42.686;23.362;2022-08-11T08:19:21;94988.28;;;28.01;37.52
41688;BME280;27371;42.686;23.362;2022-08-11T08:21:48;94986.53;;;28.17;37.73
41688;BME280;27371;42.686;23.362;2022-08-11T08:24:14;94992.47;;;28.12;37.57
41688;BME280;27371;42.686;23.362;2022-08-11T08:26:42;94992.97;;;28.30;37.40
41688;BME280;27371;42.686;23.362;2022-08-11T08:29:24;94980.94;;;28.49;36.89
41688;BME280;27371;42.686;23.362;2022-08-11T08:32:10;94978.53;;;28.55;36.62
41688;BME280;27371;42.686;23.362;2022-08-11T08:34:36;94992.59;;;28.67;36.79
41688;BME280;27371;42.686;23.362;2022-08-11T08:37:02;94988.91;;;28.85;35.79
41688;BME280;27371;42.686;23.362;2022-08-11T08:39:30;94973.59;;;28.86;35.37
41688;BME280;27371;42.686;23.362;2022-08-11T08:42:05;94977.13;;;28.87;35.78
41688;BME280;27371;42.686;23.362;2022-08-11T08:44:34;94984.84;;;28.77;35.58
41688;BME280;27371;42.686;23.362;2022-08-11T08:47:02;94965.16;;;28.86;35.23
41688;BME280;27371;42.686;23.362;2022-08-11T08:49:32;94975.56;;;28.96;35.06
41688;BME280;27371;42.686;23.362;2022-08-11T08:52:01;94981.53;;;29.02;35.61
41688;BME280;27371;42.686;23.362;2022-08-11T08:54:37;94983.16;;;29.05;35.39
41688;BME280;27371;42.686;23.362;2022-08-11T08:57:05;94980.63;;;29.09;34.69
41688;BME280;27371;42.686;23.362;2022-08-11T08:59:38;94968.19;;;28.79;35.41
41688;BME280;27371;42.686;23.362;2022-08-11T09:02:05;94979.59;;;28.71;35.90
41688;BME280;27371;42.686;23.362;2022-08-11T09:04:32;94975.22;;;29.01;36.11
41688;BME280;27371;42.686;23.362;2022-08-11T09:07:02;94966.53;;;29.30;36.59
41688;BME280;27371;42.686;23.362;2022-08-11T09:09:31;94975.50;;;29.50;35.66
41688;BME280;27371;42.686;23.362;2022-08-11T09:11:57;94977.25;;;29.22;36.82
41688;BME280;27371;42.686;23.362;2022-08-11T09:14:26;94964.31;;;29.17;35.98
41688;BME280;27371;42.686;23.362;2022-08-11T09:17:12;94951.88;;;29.20;35.43
41688;BME280;27371;42.686;23.362;2022-08-11T09:19:39;94961.97;;;29.14;35.44
41688;BME280;27371;42.686;23.362;2022-08-11T09:22:06;94964.22;;;28.94;36.15
41688;BME280;27371;42.686;23.362;2022-08-11T09:24:50;94956.88;;;28.89;35.83
41688;BME280;27371;42.686;23.362;2022-08-11T09:27:35;94962.22;;;29.06;34.86
41688;BME280;27371;42.686;23.362;2022-08-11T09:30:04;94956.78;;;29.32;33.67
41688;BME280;27371;42.686;23.362;2022-08-11T09:32:31;94956.06;;;29.43;34.17
41688;BME280;27371;42.686;23.362;2022-08-11T09:35:00;94969.25;;;29.52;35.26
41688;BME280;27371;42.686;23.362;2022-08-11T09:37:28;94946.53;;;29.24;34.03
41688;BME280;27371;42.686;23.362;2022-08-11T09:40:13;94945.59;;;28.98;35.17
41688;BME280;27371;42.686;23.362;2022-08-11T09:42:58;94934.19;;;29.06;35.72
41688;BME280;27371;42.686;23.362;2022-08-11T09:45:49;94940.28;;;29.14;34.94
41688;BME280;27371;42.686;23.362;2022-08-11T09:48:19;94958.66;;;29.05;35.13
41688;BME280;27371;42.686;23.362;2022-08-11T09:50:52;94945.59;;;28.65;36.26
41688;BME280;27371;42.686;23.362;2022-08-11T09:53:19;94936.72;;;28.47;36.02
41688;BME280;27371;42.686;23.362;2022-08-11T09:55:46;94950.47;;;28.43;36.44
41688;BME280;27371;42.686;23.362;2022-08-11T09:58:13;94939.59;;;28.59;36.05
41688;BME280;27371;42.686;23.362;2022-08-11T10:00:41;94938.91;;;28.70;35.15
41688;BME280;27371;42.686;23.362;2022-08-11T10:03:25;94923.03;;;28.63;35.09
41688;BME280;27371;42.686;23.362;2022-08-11T10:05:59;94926.69;;;28.66;35.86
41688;BME280;27371;42.686;23.362;2022-08-11T10:08:45;94921.44;;;28.60;34.74
41688;BME280;27371;42.686;23.362;2022-08-11T10:11:18;94916.91;;;28.55;35.42
41688;BME280;27371;42.686;23.362;2022-08-11T10:13:48;94924.38;;;28.62;36.87
41688;BME280;27371;42.686;23.362;2022-08-11T10:16:36;94907.28;;;28.58;37.28
41688;BME280;27371;42.686;23.362;2022-08-11T10:19:04;94916.38;;;28.80;36.61
41688;BME280;27371;42.686;23.362;2022-08-11T10:21:51;94918.47;;;28.79;36.15
41688;BME280;27371;42.686;23.362;2022-08-11T10:24:37;94918.84;;;28.85;36.49
41688;BME280;27371;42.686;23.362;2022-08-11T10:27:24;94916.66;;;28.84;35.95
41688;BME280;27371;42.686;23.362;2022-08-11T10:29:50;94920.34;;;28.98;35.40
41688;BME280;27371;42.686;23.362;2022-08-11T10:32:34;94922.03;;;28.92;35.64
41688;BME280;27371;42.686;23.362;2022-08-11T10:35:20;94929.31;;;29.06;35.31
41688;BME280;27371;42.686;23.362;2022-08-11T10:37:47;94932.25;;;29.20;34.79
41688;BME280;27371;42.686;23.362;2022-08-11T10:40:16;94914.56;;;29.06;35.05
41688;BME280;27371;42.686;23.362;2022-08-11T10:42:42;94923.19;;;29.10;34.29
41688;BME280;27371;42.686;23.362;2022-08-11T10:45:30;94920.59;;;29.02;34.65
41688;BME280;27371;42.686;23.362;2022-08-11T10:48:16;94910.53;;;29.09;33.88
41688;BME280;27371;42.686;23.362;2022-08-11T10:50:49;94900.09;;;29.00;34.50
41688;BME280;27371;42.686;23.362;2022-08-11T10:53:35;94897.25;;;29.10;34.45
41688;BME280;27371;42.686;23.362;2022-08-11T10:56:21;94897.66;;;28.94;34.12
41688;BME280;27371;42.686;23.362;2022-08-11T10:59:06;94892.03;;;28.82;34.21
41688;BME280;27371;42.686;23.362;2022-08-11T11:01:40;94899.84;;;28.84;34.44
41688;BME280;27371;42.686;23.362;2022-08-11T11:04:17;94899.38;;;28.99;34.84
41688;BME280;27371;42.686;23.362;2022-08-11T11:07:07;94884.44;;;29.06;34.63
41688;BME280;27371;42.686;23.362;2022-08-11T11:09:41;94893.44;;;29.05;34.48
41688;BME280;27371;42.686;23.362;2022-08-11T11:12:12;94886.41;;;28.82;34.23
41688;BME280;27371;42.686;23.362;2022-08-11T11:15:01;94889.44;;;28.75;34.81
41688;BME280;27371;42.686;23.362;2022-08-11T11:18:05;94887.25;;;28.73;34.71
41688;BME280;27371;42.686;23.362;2022-08-11T11:23:08;94890.09;;;28.52;34.71
41688;BME280;27371;42.686;23.362;2022-08-11T11:25:52;94896.22;;;28.17;35.53
41688;BME280;27371;42.686;23.362;2022-08-11T11:29:01;94893.53;;;27.97;36.03
41688;BME280;27371;42.686;23.362;2022-08-11T11:37:02;94888.88;;;28.55;35.36
41688;BME280;27371;42.686;23.362;2022-08-11T11:39:30;94881.47;;;28.59;35.02
41688;BME280;27371;42.686;23.362;2022-08-11T11:42:06;94900.91;;;28.79;35.05
41688;BME280;27371;42.686;23.362;2022-08-11T11:44:36;94895.69;;;28.85;35.54
41688;BME280;27371;42.686;23.362;2022-08-11T11:47:02;94893.94;;;28.25;36.53
41688;BME280;27371;42.686;23.362;2022-08-11T11:49:31;94890.44;;;27.72;36.83
41688;BME280;27371;42.686;23.362;2022-08-11T11:51:58;94888.09;;;27.37;37.71
41688;BME280;27371;42.686;23.362;2022-08-11T11:54:27;94882.59;;;26.98;38.62
41688;BME280;27371;42.686;23.362;2022-08-11T11:56:55;94870.88;;;26.80;38.87
41688;BME280;27371;42.686;23.362;2022-08-11T11:59:23;94872.66;;;26.76;39.71
41688;BME280;27371;42.686;23.362;2022-08-11T12:02:10;94885.44;;;26.59;39.99
41688;BME280;27371;42.686;23.362;2022-08-11T12:04:40;94869.28;;;26.29;40.30
41688;BME280;27371;42.686;23.362;2022-08-11T12:07:06;94871.63;;;26.03;41.42
41688;BME280;27371;42.686;23.362;2022-08-11T12:09:51;94877.63;;;25.99;41.84
41688;BME280;27371;42.686;23.362;2022-08-11T12:12:17;94862.66;;;26.05;42.07
41688;BME280;27371;42.686;23.362;2022-08-11T12:15:02;94857.78;;;26.05;41.99
41688;BME280;27371;42.686;23.362;2022-08-11T12:17:28;94851.47;;;26.05;42.18
41688;BME280;27371;42.686;23.362;2022-08-11T12:19:54;94855.44;;;26.02;42.10
41688;BME280;27371;42.686;23.362;2022-08-11T12:22:20;94854.84;;;25.93;42.70
41688;BME280;27371;42.686;23.362;2022-08-11T12:25:04;94866.16;;;25.86;43.19
41688;BME280;27371;42.686;23.362;2022-08-11T12:27:48;94864.63;;;25.65;43.34
41688;BME280;27371;42.686;23.362;2022-08-11T12:30:14;94866.47;;;25.43;43.04
41688;BME280;27371;42.686;23.362;2022-08-11T12:32:41;94864.03;;;25.20;44.03
41688;BME280;27371;42.686;23.362;2022-08-11T12:35:08;94855.97;;;25.15;44.25
41688;BME280;27371;42.686;23.362;2022-08-11T12:37:40;94870.63;;;25.15;45.23
41688;BME280;27371;42.686;23.362;2022-08-11T12:40:12;94855.53;;;25.18;44.89
41688;BME280;27371;42.686;23.362;2022-08-11T12:43:00;94862.16;;;25.32;45.00
41688;BME280;27371;42.686;23.362;2022-08-11T12:45:46;94869.63;;;25.67;42.11
41688;BME280;27371;42.686;23.362;2022-08-11T12:48:20;94866.84;;;25.67;42.05
41688;BME280;27371;42.686;23.362;2022-08-11T12:51:06;94883.25;;;25.53;44.83
41688;BME280;27371;42.686;23.362;2022-08-11T12:53:55;94881.19;;;25.53;45.60
41688;BME280;27371;42.686;23.362;2022-08-11T12:56:23;94881.31;;;25.46;46.03
41688;BME280;27371;42.686;23.362;2022-08-11T12:59:09;94888.50;;;25.49;45.75
41688;BME280;27371;42.686;23.362;2022-08-11T13:01:53;94888.25;;;25.27;45.54
41688;BME280;27371;42.686;23.362;2022-08-11T13:04:39;94874.22;;;25.08;46.77
41688;BME280;27371;42.686;23.362;2022-08-11T13:07:27;94864.94;;;24.96;47.45
41688;BME280;27371;42.686;23.362;2022-08-11T13:09:54;94871.94;;;24.70;48.13
41688;BME280;27371;42.686;23.362;2022-08-11T13:12:22;94861.75;;;24.55;48.55
41688;BME280;27371;42.686;23.362;2022-08-11T13:15:07;94870.53;;;24.78;47.72
41688;BME280;27371;42.686;23.362;2022-08-11T13:17:35;94862.59;;;24.75;47.27
41688;BME280;27371;42.686;23.362;2022-08-11T13:20:02;94863.97;;;24.83;47.61
41688;BME280;27371;42.686;23.362;2022-08-11T13:22:30;94851.53;;;24.84;47.14
41688;BME280;27371;42.686;23.362;2022-08-11T13:24:56;94855.59;;;24.83;45.42
41688;BME280;27371;42.686;23.362;2022-08-11T13:27:23;94845.00;;;24.72;45.05
41688;BME280;27371;42.686;23.362;2022-08-11T13:29:50;94840.84;;;24.63;44.71
41688;BME280;27371;42.686;23.362;2022-08-11T13:32:37;94851.28;;;24.73;45.83
41688;BME280;27371;42.686;23.362;2022-08-11T13:35:04;94852.41;;;24.87;44.72
41688;BME280;27371;42.686;23.362;2022-08-11T13:37:30;94852.19;;;24.75;43.14
41688;BME280;27371;42.686;23.362;2022-08-11T13:39:55;94836.25;;;24.76;42.87
41688;BME280;27371;42.686;23.362;2022-08-11T13:42:23;94844.38;;;24.91;42.10
41688;BME280;27371;42.686;23.362;2022-08-11T13:44:49;94842.66;;;25.05;41.54
41688;BME280;27371;42.686;23.362;2022-08-11T13:47:15;94839.97;;;25.15;42.13
41688;BME280;27371;42.686;23.362;2022-08-11T13:49:42;94836.97;;;25.13;42.16
41688;BME280;27371;42.686;23.362;2022-08-11T13:52:12;94848.06;;;25.30;41.27
41688;BME280;27371;42.686;23.362;2022-08-11T13:54:38;94845.88;;;25.29;41.28
41688;BME280;27371;42.686;23.362;2022-08-11T13:57:07;94833.00;;;25.33;40.68
41688;BME280;27371;42.686;23.362;2022-08-11T13:59:34;94831.13;;;25.46;41.12
41688;BME280;27371;42.686;23.362;2022-08-11T14:02:02;94835.69;;;25.51;40.58
41688;BME280;27371;42.686;23.362;2022-08-11T14:04:42;94829.09;;;25.56;39.72
41688;BME280;27371;42.686;23.362;2022-08-11T14:07:09;94830.72;;;25.59;40.96
41688;BME280;27371;42.686;23.362;2022-08-11T14:09:38;94829.66;;;25.54;40.91
41688;BME280;27371;42.686;23.362;2022-08-11T14:12:25;94820.56;;;25.54;41.04
41688;BME280;27371;42.686;23.362;2022-08-11T14:17:47;94803.38;;;25.48;38.94
41688;BME280;27371;42.686;23.362;2022-08-11T14:20:16;94819.25;;;25.65;38.45
41688;BME280;27371;42.686;23.362;2022-08-11T14:22:43;94815.75;;;25.74;39.55
41688;BME280;27371;42.686;23.362;2022-08-11T14:25:13;94828.41;;;25.85;39.32
41688;BME280;27371;42.686;23.362;2022-08-11T14:27:40;94825.44;;;25.83;39.51
41688;BME280;27371;42.686;23.362;2022-08-11T14:30:08;94818.00;;;25.85;39.51
41688;BME280;27371;42.686;23.362;2022-08-11T14:32:55;94818.84;;;25.78;40.42
41688;BME280;27371;42.686;23.362;2022-08-11T14:35:21;94831.22;;;25.94;40.42
41688;BME280;27371;42.686;23.362;2022-08-11T14:37:48;94823.00;;;25.87;39.96
41688;BME280;27371;42.686;23.362;2022-08-11T14:40:13;94821.78;;;25.80;40.89
41688;BME280;27371;42.686;23.362;2022-08-11T14:43:00;94811.38;;;25.81;41.73
41688;BME280;27371;42.686;23.362;2022-08-11T14:45:45;94812.56;;;25.87;41.64
41688;BME280;27371;42.686;23.362;2022-08-11T14:48:29;94824.59;;;25.99;41.01
41688;BME280;27371;42.686;23.362;2022-08-11T14:50:55;94818.00;;;26.05;40.96
41688;BME280;27371;42.686;23.362;2022-08-11T14:53:22;94823.72;;;26.07;40.79
41688;BME280;27371;42.686;23.362;2022-08-11T14:55:48;94818.28;;;25.99;39.67
41688;BME280;27371;42.686;23.362;2022-08-11T14:58:33;94810.06;;;25.91;40.51
41688;BME280;27371;42.686;23.362;2022-08-11T15:01:00;94810.22;;;26.03;40.60
41688;BME280;27371;42.686;23.362;2022-08-11T15:03:29;94803.47;;;25.87;40.91
41688;BME280;27371;42.686;23.362;2022-08-11T15:06:01;94806.25;;;25.96;40.68
41688;BME280;27371;42.686;23.362;2022-08-11T15:08:34;94815.22;;;26.05;41.05
41688;BME280;27371;42.686;23.362;2022-08-11T15:11:21;94807.88;;;25.90;41.76
41688;BME280;27371;42.686;23.362;2022-08-11T15:14:08;94808.28;;;25.67;42.02
41688;BME280;27371;42.686;23.362;2022-08-11T15:16:42;94805.28;;;25.55;42.39
41688;BME280;27371;42.686;23.362;2022-08-11T15:19:30;94808.38;;;25.49;42.48
41688;BME280;27371;42.686;23.362;2022-08-11T15:21:57;94795.44;;;25.44;42.51
41688;BME280;27371;42.686;23.362;2022-08-11T15:24:41;94808.38;;;25.49;41.41
41688;BME280;27371;42.686;23.362;2022-08-11T15:27:18;94805.28;;;25.45;41.01
41688;BME280;27371;42.686;23.362;2022-08-11T15:30:04;94791.31;;;25.36;41.41
41688;BME280;27371;42.686;23.362;2022-08-11T15:32:49;94805.28;;;25.45;41.30
41688;BME280;27371;42.686;23.362;2022-08-11T15:35:35;94808.53;;;25.51;41.18
41688;BME280;27371;42.686;23.362;2022-08-11T15:38:22;94803.66;;;25.42;40.72
41688;BME280;27371;42.686;23.362;2022-08-11T15:40:49;94790.97;;;25.22;40.58
41688;BME280;27371;42.686;23.362;2022-08-11T15:43:43;94791.34;;;25.08;40.64
41688;BME280;27371;42.686;23.362;2022-08-11T15:46:32;94798.25;;;25.07;41.01
41688;BME280;27371;42.686;23.362;2022-08-11T15:49:02;94801.41;;;24.94;41.05
41688;BME280;27371;42.686;23.362;2022-08-11T15:54:15;94797.25;;;24.76;41.85
41688;BME280;27371;42.686;23.362;2022-08-11T15:56:43;94796.34;;;24.73;41.89
41688;BME280;27371;42.686;23.362;2022-08-11T15:59:13;94801.50;;;24.77;42.24
41688;BME280;27371;42.686;23.362;2022-08-11T16:01:59;94806.59;;;24.71;42.27
41688;BME280;27371;42.686;23.362;2022-08-11T16:04:46;94811.56;;;24.72;42.49
41688;BME280;27371;42.686;23.362;2022-08-11T16:07:14;94809.66;;;24.65;42.52
41688;BME280;27371;42.686;23.362;2022-08-11T16:09:46;94811.22;;;24.58;42.78
41688;BME280;27371;42.686;23.362;2022-08-11T16:12:18;94806.00;;;24.45;43.01
41688;BME280;27371;42.686;23.362;2022-08-11T16:14:48;94805.59;;;24.49;43.01
41688;BME280;27371;42.686;23.362;2022-08-11T16:17:41;94805.44;;;24.47;43.40
41688;BME280;27371;42.686;23.362;2022-08-11T16:20:09;94805.44;;;24.47;43.34
41688;BME280;27371;42.686;23.362;2022-08-11T16:22:37;94808.09;;;24.37;43.20
41688;BME280;27371;42.686;23.362;2022-08-11T16:25:16;94801.81;;;24.36;43.17
41688;BME280;27371;42.686;23.362;2022-08-11T16:27:46;94813.69;;;24.37;43.26
41688;BME280;27371;42.686;23.362;2022-08-11T16:30:12;94809.44;;;24.36;43.38
41688;BME280;27371;42.686;23.362;2022-08-11T16:32:42;94812.81;;;24.34;43.58
41688;BME280;27371;42.686;23.362;2022-08-11T16:35:12;94814.69;;;24.32;43.73
41688;BME280;27371;42.686;23.362;2022-08-11T16:37:58;94814.53;;;24.30;43.29
41688;BME280;27371;42.686;23.362;2022-08-11T16:40:44;94818.50;;;24.36;42.99
41688;BME280;27371;42.686;23.362;2022-08-11T16:43:14;94814.84;;;24.34;43.00
41688;BME280;27371;42.686;23.362;2022-08-11T16:46:02;94811.47;;;24.35;43.02
41688;BME280;27371;42.686;23.362;2022-08-11T16:48:45;94809.13;;;24.32;43.13
41688;BME280;27371;42.686;23.362;2022-08-11T16:51:12;94813.53;;;24.35;43.21
41688;BME280;27371;42.686;23.362;2022-08-11T16:53:39;94821.63;;;24.40;42.93
41688;BME280;27371;42.686;23.362;2022-08-11T16:56:11;94816.88;;;24.33;42.86